Time;durP1;ratioP1;P1;durP2;ratioP2;P2;SDS_P1;SDS_P2;PMS_P1;PMS_P2;Temp;Humidity;BMP_temperature;BMP_pressure;BME280_temperature;BME280_humidity;BME280_pressure;Samples;Min_cycle;Max_cycle;Signal;HPM_P1;HPM_P2
2022/03/07 00:01:22;;;;;;;;;26.75;21.00;;;;;;;;5185420;27;12743;-81
2022/03/07 00:03:47;;;;;;;;;27.50;23.00;;;;;;;;5184866;27;13519;-82
2022/03/07 00:06:12;;;;;;;;;27.00;25.25;;;;;;;;5165798;27;12713;-82
2022/03/07 07:52:29;;;;;;;;;27.25;23.50;;;;;;;;5183845;27;78013;-82
2022/03/07 07:54:54;;;;;;;;;30.50;24.75;;;;;;;;5174569;27;22606;-76
2022/03/07 07:57:21;;;;;;;;;23.00;16.00;;;;;;;;5175025;27;13259;-77
2022/03/07 07:59:47;;;;;;;;;24.33;20.67;;;;;;;;5175816;27;13315;-76
2022/03/07 08:02:12;;;;;;;;;22.00;19.00;;;;;;;;5171528;27;12613;-77
2022/03/07 08:04:41;;;;;;;;;25.67;23.33;;;;;;;;5175262;27;12205;-79
2022/03/07 08:07:06;;;;;;;;;20.33;19.00;;;;;;;;5175571;27;12256;-77
2022/03/07 08:09:31;;;;;;;;;25.00;22.67;;;;;;;;5175863;27;12235;-76
2022/03/07 08:11:57;;;;;;;;;22.67;21.67;;;;;;;;5176997;27;12208;-83
2022/03/07 08:14:23;;;;;;;;;22.67;18.33;;;;;;;;5177920;27;10561;-83
2022/03/07 08:16:49;;;;;;;;;25.00;21.33;;;;;;;;5176733;27;10779;-81
2022/03/07 08:19:15;;;;;;;;;22.25;18.50;;;;;;;;5176914;27;11857;-86
2022/03/07 08:21:40;;;;;;;;;20.50;19.75;;;;;;;;5176524;27;12428;-80
2022/03/07 08:24:06;;;;;;;;;19.75;18.75;;;;;;;;5176091;27;11498;-81
2022/03/07 08:26:32;;;;;;;;;24.00;24.00;;;;;;;;5176078;27;13377;-82
2022/03/07 08:28:57;;;;;;;;;27.50;21.75;;;;;;;;5175017;27;14391;-83
2022/03/07 08:31:22;;;;;;;;;22.25;22.25;;;;;;;;5176089;27;11614;-86
2022/03/07 08:33:48;;;;;;;;;21.50;21.25;;;;;;;;5176349;27;10631;-84
2022/03/07 08:36:13;;;;;;;;;23.50;19.00;;;;;;;;5176410;27;10863;-82
2022/03/07 08:38:38;;;;;;;;;22.00;18.25;;;;;;;;5176641;27;14764;-79
2022/03/07 08:41:04;;;;;;;;;24.50;20.50;;;;;;;;5175981;27;11827;-81
2022/03/07 08:43:29;;;;;;;;;18.75;17.50;;;;;;;;5176642;27;12166;-81
2022/03/07 08:45:55;;;;;;;;;17.67;17.67;;;;;;;;5178226;27;12174;-77
2022/03/07 08:48:20;;;;;;;;;20.25;20.25;;;;;;;;5178120;27;12606;-81
2022/03/07 08:50:48;;;;;;;;;25.25;23.75;;;;;;;;5177095;27;13297;-80
2022/03/07 08:53:14;;;;;;;;;24.00;22.75;;;;;;;;5170256;27;10959;-77
2022/03/07 08:55:39;;;;;;;;;24.25;21.75;;;;;;;;5177552;27;11729;-90
2022/03/07 08:58:05;;;;;;;;;23.25;21.50;;;;;;;;5179632;27;11918;-89
2022/03/07 09:00:30;;;;;;;;;21.75;19.50;;;;;;;;5179193;27;12787;-87
2022/03/07 09:02:55;;;;;;;;;20.75;19.75;;;;;;;;5171826;27;12342;-87
2022/03/07 09:05:21;;;;;;;;;25.75;23.25;;;;;;;;5163907;27;11614;-86
2022/03/07 09:07:46;;;;;;;;;25.67;23.00;;;;;;;;5163493;27;14006;-83
2022/03/07 09:10:11;;;;;;;;;39.00;33.75;;;;;;;;5153173;27;8788;-81
2022/03/07 09:12:40;;;;;;;;;28.00;26.67;;;;;;;;5142741;27;13731;-84
2022/03/07 09:15:05;;;;;;;;;24.67;24.67;;;;;;;;5143060;27;13316;-85
2022/03/07 09:17:31;;;;;;;;;24.00;22.67;;;;;;;;5143519;27;10504;-84
2022/03/07 09:19:56;;;;;;;;;23.33;22.33;;;;;;;;5144194;27;11942;-87
2022/03/07 09:22:22;;;;;;;;;23.67;21.33;;;;;;;;5143042;27;11906;-85
2022/03/07 09:24:47;;;;;;;;;29.00;27.33;;;;;;;;5140647;27;9960;-86
2022/03/07 09:27:13;;;;;;;;;24.00;22.33;;;;;;;;5142850;27;10378;-82
2022/03/07 09:29:38;;;;;;;;;21.67;20.67;;;;;;;;5142810;27;8776;-80
2022/03/07 09:32:05;;;;;;;;;22.00;20.67;;;;;;;;5143422;27;11328;-86
2022/03/07 09:34:31;;;;;;;;;23.75;22.25;;;;;;;;5145199;27;9722;-91
2022/03/07 09:36:56;;;;;;;;;20.67;20.00;;;;;;;;5150309;27;11378;-87
2022/03/07 09:39:21;;;;;;;;;27.00;22.00;;;;;;;;5162022;27;11376;-92
2022/03/07 09:41:47;;;;;;;;;22.00;20.33;;;;;;;;5169634;27;10511;-89
2022/03/07 09:44:12;;;;;;;;;23.00;23.00;;;;;;;;5183990;27;13460;-88
2022/03/07 09:46:37;;;;;;;;;22.33;21.33;;;;;;;;5165602;27;11854;-85
2022/03/07 09:49:03;;;;;;;;;23.33;22.00;;;;;;;;5166088;27;12460;-91
2022/03/07 09:51:29;;;;;;;;;24.67;23.67;;;;;;;;5164176;27;11964;-88
2022/03/07 09:53:54;;;;;;;;;23.33;22.67;;;;;;;;5165099;27;12612;-80
2022/03/07 09:56:20;;;;;;;;;22.00;20.33;;;;;;;;5165898;27;10703;-83
2022/03/07 09:58:45;;;;;;;;;26.25;23.00;;;;;;;;5147537;27;11435;-84
2022/03/07 10:01:17;;;;;;;;;27.50;24.25;;;;;;;;5163153;27;11731;-81
2022/03/07 10:03:42;;;;;;;;;24.25;21.25;;;;;;;;5163262;27;13733;-82
2022/03/07 10:06:12;;;;;;;;;24.50;22.50;;;;;;;;5163128;27;11023;-83
2022/03/07 10:08:37;;;;;;;;;24.50;24.50;;;;;;;;5159732;27;12443;-82
2022/03/07 10:11:10;;;;;;;;;27.25;25.00;;;;;;;;5161761;27;10532;-84
2022/03/07 10:13:35;;;;;;;;;25.50;23.25;;;;;;;;5162845;27;11456;-84
2022/03/07 10:16:01;;;;;;;;;24.25;22.75;;;;;;;;5159816;27;13693;-83
2022/03/07 10:18:28;;;;;;;;;23.25;23.25;;;;;;;;5163238;27;10429;-81
2022/03/07 10:20:54;;;;;;;;;19.67;19.00;;;;;;;;5160574;27;13545;-83
2022/03/07 10:23:21;;;;;;;;;20.00;19.75;;;;;;;;5162160;27;14139;-83
2022/03/07 10:25:46;;;;;;;;;19.50;19.50;;;;;;;;5161635;27;13512;-83
2022/03/07 10:28:12;;;;;;;;;21.33;20.00;;;;;;;;5160628;27;14936;-83
2022/03/07 10:30:38;;;;;;;;;23.67;22.33;;;;;;;;5158238;27;14446;-83
2022/03/07 10:33:08;;;;;;;;;23.75;21.75;;;;;;;;5164316;27;11467;-88
2022/03/07 10:35:38;;;;;;;;;19.50;19.50;;;;;;;;5165917;27;9870;-86
2022/03/07 10:38:08;;;;;;;;;22.50;22.50;;;;;;;;5156309;27;13738;-89
2022/03/07 10:40:38;;;;;;;;;19.50;18.50;;;;;;;;5164019;27;10457;-90
2022/03/07 10:43:04;;;;;;;;;19.00;19.00;;;;;;;;5162777;27;10404;-87
2022/03/07 10:45:30;;;;;;;;;21.00;21.00;;;;;;;;5162062;27;10374;-85
2022/03/07 10:47:57;;;;;;;;;22.75;19.75;;;;;;;;5163409;27;10963;-85
2022/03/07 10:50:23;;;;;;;;;21.50;20.75;;;;;;;;5162487;27;12490;-88
2022/03/07 10:52:52;;;;;;;;;20.25;20.00;;;;;;;;5167692;27;12871;-88
2022/03/07 10:55:22;;;;;;;;;20.75;20.75;;;;;;;;5165306;27;11735;-88
2022/03/07 10:57:47;;;;;;;;;21.00;19.25;;;;;;;;5164134;27;8843;-93
2022/03/07 11:00:14;;;;;;;;;20.67;19.33;;;;;;;;5165592;27;11929;-93
2022/03/07 11:02:40;;;;;;;;;21.50;21.50;;;;;;;;5164016;27;9345;-90
2022/03/07 11:05:07;;;;;;;;;22.67;21.33;;;;;;;;5164075;27;12447;-94
2022/03/07 11:07:33;;;;;;;;;24.00;22.00;;;;;;;;5163594;27;13669;-93
2022/03/07 11:09:58;;;;;;;;;25.25;24.25;;;;;;;;5162712;27;11899;-93
2022/03/07 11:12:24;;;;;;;;;21.25;19.25;;;;;;;;5166084;27;11339;-93
2022/03/07 11:14:50;;;;;;;;;23.00;20.25;;;;;;;;5164239;27;9786;-94
2022/03/07 11:17:17;;;;;;;;;24.00;22.75;;;;;;;;5164553;27;12356;-91
2022/03/07 11:19:43;;;;;;;;;17.25;17.00;;;;;;;;5163561;27;10760;-87
2022/03/07 11:22:10;;;;;;;;;23.00;22.75;;;;;;;;5163806;27;13663;-90
2022/03/07 11:24:36;;;;;;;;;23.25;21.50;;;;;;;;5162847;27;13437;-89
2022/03/07 11:27:02;;;;;;;;;9.00;6.75;;;;;;;;5161846;27;12647;-87
2022/03/07 11:29:38;;;;;;;;;25.00;24.00;;;;;;;;5159452;27;25512;-84
2022/03/07 11:32:06;;;;;;;;;19.50;19.50;;;;;;;;5154539;27;24320;-84
2022/03/07 11:34:31;;;;;;;;;21.00;19.25;;;;;;;;5152375;27;15081;-82
2022/03/07 11:36:57;;;;;;;;;21.50;19.50;;;;;;;;5149546;27;16784;-87
2022/03/07 11:39:36;;;;;;;;;25.50;22.75;;;;;;;;5151826;27;8819;-86
2022/03/07 11:42:11;;;;;;;;;17.25;15.75;;;;;;;;5148097;27;12283;-86
2022/03/07 11:44:36;;;;;;;;;22.50;20.75;;;;;;;;5138447;27;14442;-85
2022/03/07 11:47:09;;;;;;;;;20.00;20.00;;;;;;;;5155431;27;14955;-89
2022/03/07 11:49:34;;;;;;;;;27.25;22.50;;;;;;;;5152353;27;13325;-78
2022/03/07 11:52:01;;;;;;;;;16.00;13.50;;;;;;;;5140491;27;11634;-82
2022/03/07 11:54:26;;;;;;;;;24.50;23.50;;;;;;;;5139645;27;15875;-87
2022/03/07 11:56:52;;;;;;;;;18.50;15.25;;;;;;;;5147817;27;12979;-86
2022/03/07 11:59:27;;;;;;;;;27.00;23.50;;;;;;;;5148258;27;13360;-86
2022/03/07 12:01:53;;;;;;;;;23.75;19.75;;;;;;;;5147550;27;13537;-84
2022/03/07 12:04:19;;;;;;;;;26.25;24.75;;;;;;;;5154505;27;12174;-85
2022/03/07 12:06:45;;;;;;;;;25.75;22.25;;;;;;;;5141749;27;10545;-82
2022/03/07 12:09:10;;;;;;;;;25.50;21.00;;;;;;;;5140951;27;10655;-84
2022/03/07 12:11:36;;;;;;;;;22.00;20.50;;;;;;;;5146935;27;11091;-82
2022/03/07 12:14:06;;;;;;;;;26.00;23.25;;;;;;;;5147764;27;11674;-84
2022/03/07 12:16:33;;;;;;;;;24.25;22.00;;;;;;;;5161384;27;11837;-84
2022/03/07 12:19:08;;;;;;;;;23.25;21.75;;;;;;;;5144702;27;12836;-82
2022/03/07 12:21:35;;;;;;;;;22.25;20.50;;;;;;;;5155318;27;11539;-87
2022/03/07 12:24:00;;;;;;;;;30.00;25.50;;;;;;;;5159393;27;13897;-83
2022/03/07 12:26:26;;;;;;;;;19.75;17.75;;;;;;;;5144234;27;12526;-85
2022/03/07 12:28:51;;;;;;;;;27.00;24.25;;;;;;;;5146615;27;13627;-81
2022/03/07 12:31:17;;;;;;;;;27.25;22.50;;;;;;;;5147237;27;12345;-84
2022/03/07 12:33:43;;;;;;;;;28.00;26.00;;;;;;;;5141514;27;10341;-87
2022/03/07 12:36:12;;;;;;;;;22.75;19.25;;;;;;;;5141798;27;11509;-84
2022/03/07 12:38:50;;;;;;;;;25.50;23.25;;;;;;;;5144503;27;12339;-82
2022/03/07 12:41:18;;;;;;;;;26.25;25.75;;;;;;;;5151835;27;11476;-83
2022/03/07 12:43:48;;;;;;;;;28.00;23.75;;;;;;;;5152634;27;13047;-84
2022/03/07 12:46:14;;;;;;;;;25.50;22.75;;;;;;;;5152811;27;11517;-80
2022/03/07 12:48:43;;;;;;;;;24.75;22.25;;;;;;;;5152661;27;11502;-81
2022/03/07 12:51:18;;;;;;;;;20.50;19.00;;;;;;;;5147351;27;11694;-85
2022/03/07 12:53:48;;;;;;;;;22.75;19.50;;;;;;;;5153967;27;15559;-86
2022/03/07 12:56:15;;;;;;;;;26.75;24.50;;;;;;;;5157215;27;11625;-85
2022/03/07 12:58:47;;;;;;;;;24.50;22.75;;;;;;;;5150831;27;13046;-87
2022/03/07 13:01:13;;;;;;;;;27.25;25.00;;;;;;;;5160195;27;11730;-81
2022/03/07 13:03:38;;;;;;;;;26.50;24.25;;;;;;;;5156610;27;11698;-88
2022/03/07 13:06:04;;;;;;;;;24.50;22.75;;;;;;;;5151985;27;13324;-83
2022/03/07 13:08:29;;;;;;;;;18.25;15.75;;;;;;;;5143354;27;10677;-82
2022/03/07 13:10:54;;;;;;;;;23.25;23.00;;;;;;;;5142314;27;12753;-83
2022/03/07 13:13:20;;;;;;;;;26.75;23.50;;;;;;;;5151160;27;13454;-82
2022/03/07 13:15:45;;;;;;;;;27.75;19.25;;;;;;;;5143523;27;11811;-82
2022/03/07 13:18:10;;;;;;;;;21.75;18.25;;;;;;;;5146813;27;13979;-84
2022/03/07 13:20:36;;;;;;;;;26.25;24.00;;;;;;;;5142105;27;8920;-83
2022/03/07 13:23:02;;;;;;;;;24.50;23.00;;;;;;;;5140010;27;12681;-82
2022/03/07 13:25:42;;;;;;;;;25.50;23.00;;;;;;;;5142538;27;10557;-82
2022/03/07 13:28:09;;;;;;;;;18.50;17.25;;;;;;;;5142567;27;11470;-81
2022/03/07 13:30:34;;;;;;;;;24.75;21.50;;;;;;;;5142927;27;15018;-81
2022/03/07 13:33:04;;;;;;;;;34.00;28.25;;;;;;;;5142091;27;13462;-83
2022/03/07 13:35:29;;;;;;;;;31.00;27.00;;;;;;;;5142204;27;14760;-83
2022/03/07 13:37:56;;;;;;;;;28.00;24.00;;;;;;;;5140420;27;11967;-82
2022/03/07 13:40:33;;;;;;;;;24.50;22.25;;;;;;;;5143192;27;10916;-82
2022/03/07 13:42:59;;;;;;;;;24.50;23.25;;;;;;;;5141956;27;11569;-82
2022/03/07 13:45:26;;;;;;;;;32.00;26.50;;;;;;;;5141973;27;11441;-82
2022/03/07 13:48:02;;;;;;;;;28.00;23.00;;;;;;;;5142619;27;13361;-82
2022/03/07 13:50:28;;;;;;;;;20.75;20.75;;;;;;;;5139499;27;15762;-82
2022/03/07 13:53:01;;;;;;;;;26.25;23.25;;;;;;;;5142323;27;11485;-82
2022/03/07 13:55:26;;;;;;;;;26.33;23.67;;;;;;;;5141796;27;10964;-84
2022/03/07 13:57:53;;;;;;;;;29.67;25.00;;;;;;;;5142630;27;11496;-82
2022/03/07 14:00:20;;;;;;;;;28.00;24.67;;;;;;;;5142034;27;12725;-83
2022/03/07 14:02:49;;;;;;;;;22.50;20.75;;;;;;;;5139940;27;13491;-83
2022/03/07 14:05:16;;;;;;;;;25.33;22.00;;;;;;;;5141757;27;12586;-82
2022/03/07 14:07:45;;;;;;;;;29.33;21.67;;;;;;;;5142128;27;11468;-83
2022/03/07 14:10:15;;;;;;;;;29.67;27.00;;;;;;;;5139614;27;14136;-82
2022/03/07 14:12:42;;;;;;;;;27.33;25.67;;;;;;;;5141230;27;11616;-91
2022/03/07 14:15:11;;;;;;;;;27.00;22.67;;;;;;;;5150296;27;11586;-80
2022/03/07 14:17:38;;;;;;;;;32.00;26.67;;;;;;;;5148133;27;11515;-84
2022/03/07 14:20:04;;;;;;;;;27.33;25.33;;;;;;;;5159601;27;11515;-89
2022/03/07 14:22:29;;;;;;;;;26.33;24.33;;;;;;;;5162282;27;13906;-82
2022/03/07 14:24:56;;;;;;;;;27.33;25.00;;;;;;;;5162634;27;9371;-83
2022/03/07 14:27:26;;;;;;;;;27.00;24.00;;;;;;;;5162869;27;11708;-83
2022/03/07 14:29:51;;;;;;;;;23.00;22.33;;;;;;;;5163131;27;9807;-82
2022/03/07 14:32:16;;;;;;;;;27.67;23.00;;;;;;;;5162816;27;11406;-83
2022/03/07 14:34:44;;;;;;;;;28.00;26.67;;;;;;;;5162357;27;11725;-82
2022/03/07 14:37:09;;;;;;;;;24.33;19.33;;;;;;;;5162246;27;12183;-83
2022/03/07 14:39:35;;;;;;;;;30.00;26.00;;;;;;;;5161959;27;12181;-80
2022/03/07 14:42:01;;;;;;;;;27.33;25.67;;;;;;;;5159979;27;15538;-79
2022/03/07 14:44:28;;;;;;;;;25.00;23.00;;;;;;;;5162663;27;13405;-79
2022/03/07 14:46:53;;;;;;;;;27.67;25.67;;;;;;;;5161947;27;11701;-80
2022/03/07 14:49:18;;;;;;;;;26.67;23.33;;;;;;;;5162127;27;11607;-79
2022/03/07 14:51:43;;;;;;;;;26.00;26.00;;;;;;;;5154909;27;11914;-79
2022/03/07 14:54:09;;;;;;;;;27.67;24.67;;;;;;;;5148399;27;10383;-79
2022/03/07 14:56:35;;;;;;;;;25.67;22.00;;;;;;;;5139558;27;11716;-82
2022/03/07 14:59:02;;;;;;;;;26.00;21.00;;;;;;;;5140710;27;11345;-86
2022/03/07 15:01:28;;;;;;;;;26.33;25.00;;;;;;;;5139576;27;10670;-84
2022/03/07 15:03:53;;;;;;;;;27.33;25.67;;;;;;;;5140920;27;9529;-82
2022/03/07 15:06:18;;;;;;;;;31.33;28.67;;;;;;;;5139080;27;13279;-81
2022/03/07 15:08:44;;;;;;;;;28.67;25.00;;;;;;;;5141137;27;10750;-83
2022/03/07 15:11:09;;;;;;;;;23.67;23.00;;;;;;;;5138941;27;15858;-81
2022/03/07 15:15:49;;;;;;;;;23.25;20.75;;;;;;;;5217045;27;78664;-84
2022/03/07 15:18:14;;;;;;;;;22.00;18.00;;;;;;;;5200127;27;23250;-86
2022/03/07 15:20:39;;;;;;;;;20.33;20.33;;;;;;;;5200283;27;12289;-85
2022/03/07 15:23:05;;;;;;;;;21.67;21.00;;;;;;;;5200378;27;12335;-85
2022/03/07 15:25:30;;;;;;;;;25.33;18.00;;;;;;;;5201191;27;11642;-85
2022/03/07 15:27:56;;;;;;;;;21.67;17.33;;;;;;;;5198493;27;11406;-84
2022/03/07 15:30:22;;;;;;;;;26.00;24.00;;;;;;;;5180260;27;13773;-85
2022/03/07 15:32:47;;;;;;;;;20.00;18.00;;;;;;;;5200790;27;12376;-85
2022/03/07 15:35:12;;;;;;;;;24.33;20.00;;;;;;;;5201582;27;9948;-86
2022/03/07 15:37:37;;;;;;;;;23.00;19.67;;;;;;;;5201155;27;11924;-85
2022/03/07 15:40:03;;;;;;;;;26.00;20.00;;;;;;;;5200727;27;12245;-84
2022/03/07 15:42:28;;;;;;;;;23.33;21.33;;;;;;;;5200733;27;12298;-86
2022/03/07 15:44:54;;;;;;;;;22.33;22.00;;;;;;;;5200002;27;11472;-82
2022/03/07 15:47:19;;;;;;;;;20.33;18.00;;;;;;;;5197618;27;12976;-87
2022/03/07 15:49:44;;;;;;;;;24.67;20.00;;;;;;;;5181016;27;11863;-82
2022/03/07 15:52:10;;;;;;;;;25.00;18.00;;;;;;;;5199562;27;11383;-82
2022/03/07 15:54:35;;;;;;;;;22.67;18.67;;;;;;;;5200764;27;11420;-85
2022/03/07 15:57:00;;;;;;;;;25.00;21.67;;;;;;;;5199888;27;11339;-84
2022/03/07 15:59:25;;;;;;;;;24.33;20.33;;;;;;;;5199807;27;11385;-86
2022/03/07 16:01:54;;;;;;;;;21.00;17.67;;;;;;;;5200427;27;12677;-83
2022/03/07 16:04:20;;;;;;;;;19.67;17.33;;;;;;;;5199462;27;12562;-86
2022/03/07 16:06:50;;;;;;;;;20.67;20.00;;;;;;;;5199912;27;13363;-86
2022/03/07 16:09:16;;;;;;;;;20.00;18.00;;;;;;;;5199156;27;13576;-80
2022/03/07 16:11:41;;;;;;;;;21.33;17.67;;;;;;;;5197966;27;11790;-82
2022/03/07 16:14:06;;;;;;;;;30.00;22.00;;;;;;;;5198672;27;11411;-81
2022/03/07 16:16:33;;;;;;;;;23.33;20.67;;;;;;;;5199926;27;13515;-81
2022/03/07 16:18:58;;;;;;;;;22.00;19.33;;;;;;;;5198554;27;13308;-81
2022/03/07 16:21:24;;;;;;;;;29.33;19.67;;;;;;;;5198631;27;12379;-79
2022/03/07 16:23:49;;;;;;;;;22.67;22.00;;;;;;;;5187283;27;11595;-80
2022/03/07 16:26:14;;;;;;;;;24.00;22.33;;;;;;;;5183932;27;12464;-81
2022/03/07 16:28:40;;;;;;;;;19.67;19.67;;;;;;;;5172490;27;11466;-81
2022/03/07 16:31:06;;;;;;;;;21.00;17.67;;;;;;;;5165677;27;13203;-81
2022/03/07 16:33:31;;;;;;;;;24.00;22.33;;;;;;;;5164496;27;12255;-81
2022/03/07 16:35:56;;;;;;;;;27.33;24.00;;;;;;;;5164560;27;12394;-79
2022/03/07 16:38:24;;;;;;;;;21.00;16.33;;;;;;;;5164148;27;11448;-81
2022/03/07 16:40:50;;;;;;;;;22.33;20.00;;;;;;;;5157104;27;12797;-84
2022/03/07 16:43:15;;;;;;;;;20.00;17.00;;;;;;;;5186221;27;13513;-81
2022/03/07 16:45:41;;;;;;;;;24.33;18.00;;;;;;;;5185011;27;11923;-81
2022/03/07 16:48:07;;;;;;;;;23.67;20.00;;;;;;;;5167490;27;12573;-80
2022/03/07 16:50:33;;;;;;;;;22.67;20.67;;;;;;;;5165872;27;11653;-77
2022/03/07 16:52:59;;;;;;;;;25.00;18.33;;;;;;;;5165741;27;11716;-79
2022/03/07 16:55:24;;;;;;;;;23.67;19.00;;;;;;;;5164671;27;14664;-79
2022/03/07 16:57:49;;;;;;;;;22.00;19.33;;;;;;;;5184487;27;11376;-80
2022/03/07 17:00:15;;;;;;;;;22.67;16.67;;;;;;;;5183993;27;11625;-81
2022/03/07 17:02:40;;;;;;;;;25.67;22.33;;;;;;;;5165184;27;12422;-79
2022/03/07 17:05:06;;;;;;;;;28.67;23.67;;;;;;;;5178761;27;12198;-84
2022/03/07 17:07:31;;;;;;;;;22.33;19.67;;;;;;;;5173279;27;12423;-78
2022/03/07 17:10:01;;;;;;;;;23.33;19.67;;;;;;;;5167117;27;11613;-79
2022/03/07 17:12:27;;;;;;;;;24.67;20.00;;;;;;;;5184706;27;8768;-78
2022/03/07 17:14:54;;;;;;;;;24.00;19.67;;;;;;;;5183861;27;12372;-76
2022/03/07 17:17:19;;;;;;;;;27.00;20.67;;;;;;;;5183371;27;12504;-76
2022/03/07 17:19:45;;;;;;;;;24.67;21.00;;;;;;;;5184523;27;9023;-76
2022/03/07 17:22:11;;;;;;;;;25.33;20.00;;;;;;;;5165404;27;11733;-74
2022/03/07 17:24:36;;;;;;;;;24.33;21.33;;;;;;;;5183419;27;11770;-80
2022/03/07 17:27:02;;;;;;;;;24.67;22.00;;;;;;;;5166188;27;12283;-80
2022/03/07 17:29:27;;;;;;;;;24.00;22.33;;;;;;;;5183832;27;10526;-78
2022/03/07 17:31:53;;;;;;;;;22.00;19.67;;;;;;;;5183397;27;8823;-78
2022/03/07 17:34:18;;;;;;;;;22.33;20.33;;;;;;;;5164789;27;13010;-78
2022/03/07 17:36:43;;;;;;;;;14.67;13.67;;;;;;;;5183181;27;12367;-81
2022/03/07 17:39:09;;;;;;;;;21.33;21.33;;;;;;;;5183839;27;13387;-81
2022/03/07 17:41:34;;;;;;;;;27.67;23.33;;;;;;;;5183285;27;14345;-85
2022/03/07 17:44:00;;;;;;;;;23.33;23.00;;;;;;;;5185254;27;10342;-81
2022/03/07 17:46:25;;;;;;;;;30.67;26.00;;;;;;;;5184976;27;12037;-84
2022/03/07 17:48:52;;;;;;;;;22.67;21.33;;;;;;;;5183951;27;12221;-80
2022/03/07 17:51:17;;;;;;;;;26.00;22.33;;;;;;;;5177889;27;13674;-82
2022/03/07 17:53:42;;;;;;;;;20.67;19.33;;;;;;;;5167171;27;11673;-79
2022/03/07 17:56:08;;;;;;;;;27.67;23.67;;;;;;;;5162342;27;11576;-79
2022/03/07 17:58:33;;;;;;;;;26.67;22.67;;;;;;;;5163937;27;14244;-81
2022/03/07 18:00:58;;;;;;;;;21.33;20.00;;;;;;;;5184297;27;8844;-85
2022/03/07 18:03:24;;;;;;;;;25.33;23.00;;;;;;;;5165636;27;13773;-82
2022/03/07 18:05:50;;;;;;;;;24.00;21.00;;;;;;;;5165494;27;11767;-80
2022/03/07 18:08:15;;;;;;;;;23.33;20.00;;;;;;;;5187377;27;10612;-85
2022/03/07 18:10:43;;;;;;;;;21.67;19.67;;;;;;;;5166179;27;12946;-85
2022/03/07 18:13:09;;;;;;;;;19.00;15.33;;;;;;;;5184033;27;13745;-83
2022/03/07 18:15:35;;;;;;;;;27.67;21.67;;;;;;;;5164922;27;13378;-84
2022/03/07 18:18:00;;;;;;;;;23.33;16.00;;;;;;;;5165954;27;16939;-90
2022/03/07 18:20:26;;;;;;;;;28.00;21.33;;;;;;;;5186112;27;12202;-87
2022/03/07 18:22:51;;;;;;;;;20.00;20.00;;;;;;;;5185818;27;12273;-93
2022/03/07 18:25:16;;;;;;;;;30.33;23.00;;;;;;;;5167856;27;11832;-87
2022/03/07 18:27:41;;;;;;;;;33.33;25.67;;;;;;;;5182341;27;12223;-86
2022/03/07 18:30:10;;;;;;;;;27.00;25.33;;;;;;;;5175960;27;11353;-86
2022/03/07 18:32:35;;;;;;;;;27.33;20.67;;;;;;;;5185603;27;13364;-80
2022/03/07 18:35:04;;;;;;;;;24.67;21.67;;;;;;;;5181787;27;12229;-83
2022/03/07 18:37:29;;;;;;;;;29.67;24.33;;;;;;;;5183935;27;10418;-86
2022/03/07 18:39:55;;;;;;;;;30.00;22.33;;;;;;;;5183630;27;11363;-85
2022/03/07 18:42:20;;;;;;;;;22.67;22.67;;;;;;;;5185081;27;12585;-79
2022/03/07 18:44:45;;;;;;;;;23.33;20.33;;;;;;;;5185012;27;13280;-88
2022/03/07 18:47:11;;;;;;;;;24.00;19.00;;;;;;;;5166970;27;13501;-90
2022/03/07 18:49:37;;;;;;;;;24.00;20.00;;;;;;;;5154177;27;14857;-90
2022/03/07 18:52:03;;;;;;;;;21.67;21.00;;;;;;;;5171556;27;9676;-82
2022/03/07 18:54:28;;;;;;;;;21.00;20.67;;;;;;;;5170087;27;10850;-88
2022/03/07 18:56:54;;;;;;;;;31.00;24.67;;;;;;;;5176515;27;10508;-82
2022/03/07 18:59:19;;;;;;;;;23.00;19.00;;;;;;;;5186980;27;10779;-90
2022/03/07 19:01:46;;;;;;;;;27.33;23.00;;;;;;;;5177712;27;15332;-87
2022/03/07 19:04:11;;;;;;;;;29.33;24.67;;;;;;;;5172928;27;11872;-82
2022/03/07 19:06:37;;;;;;;;;29.67;24.67;;;;;;;;5172546;27;13319;-90
2022/03/07 19:09:03;;;;;;;;;26.33;24.00;;;;;;;;5193918;27;8819;-90
2022/03/07 19:11:29;;;;;;;;;21.67;19.33;;;;;;;;5190421;27;11501;-84
2022/03/07 19:13:54;;;;;;;;;26.00;23.00;;;;;;;;5191245;27;12455;-90
2022/03/07 19:16:20;;;;;;;;;26.67;22.67;;;;;;;;5164676;27;14413;-87
2022/03/07 19:18:45;;;;;;;;;22.33;19.33;;;;;;;;5164068;27;12396;-86
2022/03/07 19:21:12;;;;;;;;;36.33;26.00;;;;;;;;5183786;27;12685;-96
2022/03/07 19:23:37;;;;;;;;;24.00;19.67;;;;;;;;5189483;27;13859;-95
2022/03/07 19:26:03;;;;;;;;;19.33;19.33;;;;;;;;5189766;27;14286;-94
2022/03/07 19:28:31;;;;;;;;;30.00;21.00;;;;;;;;5164764;27;15048;-92
2022/03/07 19:30:56;;;;;;;;;24.00;22.00;;;;;;;;5186938;27;13949;-92
2022/03/07 19:33:22;;;;;;;;;33.33;25.00;;;;;;;;5186650;27;10676;-94
2022/03/07 19:35:47;;;;;;;;;25.67;23.33;;;;;;;;5185509;27;12349;-95
2022/03/07 19:38:14;;;;;;;;;27.00;19.33;;;;;;;;5165754;27;15337;-91
2022/03/07 19:40:40;;;;;;;;;31.33;27.00;;;;;;;;5182003;27;11738;-88
2022/03/07 19:43:06;;;;;;;;;24.33;22.00;;;;;;;;5175300;27;15699;-91
2022/03/07 19:45:31;;;;;;;;;30.67;26.67;;;;;;;;5184899;27;10454;-84
2022/03/07 19:47:57;;;;;;;;;29.67;27.33;;;;;;;;5186199;27;13224;-80
2022/03/07 19:50:22;;;;;;;;;29.00;24.33;;;;;;;;5190954;27;13755;-78
2022/03/07 19:52:48;;;;;;;;;29.33;25.67;;;;;;;;5173758;27;10234;-79
2022/03/07 19:55:13;;;;;;;;;31.00;23.33;;;;;;;;5198119;27;10448;-79
2022/03/07 19:57:38;;;;;;;;;30.00;22.00;;;;;;;;5182938;27;13269;-81
2022/03/07 20:00:05;;;;;;;;;26.00;22.33;;;;;;;;5182603;27;11604;-79
2022/03/07 20:02:31;;;;;;;;;21.33;20.33;;;;;;;;5166690;27;15650;-78
2022/03/07 20:04:56;;;;;;;;;29.67;24.67;;;;;;;;5183983;27;11977;-77
2022/03/07 20:07:21;;;;;;;;;27.00;26.00;;;;;;;;5164888;27;13398;-77
2022/03/07 20:09:47;;;;;;;;;30.00;22.00;;;;;;;;5184026;27;11558;-78
2022/03/07 20:12:13;;;;;;;;;23.00;22.00;;;;;;;;5183938;27;10413;-77
2022/03/07 20:14:38;;;;;;;;;23.00;20.33;;;;;;;;5184328;27;8852;-77
2022/03/07 20:17:04;;;;;;;;;26.67;25.00;;;;;;;;5165143;27;11926;-76
2022/03/07 20:19:30;;;;;;;;;25.00;22.33;;;;;;;;5166712;27;14743;-77
2022/03/07 20:21:57;;;;;;;;;16.00;12.67;;;;;;;;5185043;27;11569;-77
2022/03/07 20:24:22;;;;;;;;;34.00;25.67;;;;;;;;5184102;27;13271;-78
2022/03/07 20:26:48;;;;;;;;;22.67;21.00;;;;;;;;5184569;27;11620;-77
2022/03/07 20:29:13;;;;;;;;;28.33;25.33;;;;;;;;5185332;27;13783;-79
2022/03/07 20:31:38;;;;;;;;;23.00;22.33;;;;;;;;5185135;27;11419;-78
2022/03/07 20:34:07;;;;;;;;;24.67;23.33;;;;;;;;5184984;27;10402;-78
2022/03/07 20:36:33;;;;;;;;;29.00;27.67;;;;;;;;5185047;27;10407;-77
2022/03/07 20:38:58;;;;;;;;;28.33;22.33;;;;;;;;5185472;27;13211;-78
2022/03/07 20:41:23;;;;;;;;;27.33;23.67;;;;;;;;5185518;27;11908;-78
2022/03/07 20:43:49;;;;;;;;;26.67;25.33;;;;;;;;5165779;27;13641;-77
2022/03/07 20:46:14;;;;;;;;;31.67;24.00;;;;;;;;5185698;27;11346;-78
2022/03/07 20:48:39;;;;;;;;;28.33;23.33;;;;;;;;5185336;27;13448;-78
2022/03/07 20:51:05;;;;;;;;;18.33;13.00;;;;;;;;5165215;27;15613;-77
2022/03/07 20:53:30;;;;;;;;;30.67;23.00;;;;;;;;5185100;27;13281;-78
2022/03/07 20:55:55;;;;;;;;;24.00;22.67;;;;;;;;5184958;27;13642;-78
2022/03/07 20:58:20;;;;;;;;;29.33;25.00;;;;;;;;5184817;27;13269;-77
2022/03/07 21:00:46;;;;;;;;;33.00;25.67;;;;;;;;5184307;27;11379;-78
2022/03/07 21:03:11;;;;;;;;;26.67;23.33;;;;;;;;5184406;27;14007;-76
2022/03/07 21:05:37;;;;;;;;;41.00;32.00;;;;;;;;5165121;27;15233;-77
2022/03/07 21:08:02;;;;;;;;;25.00;19.00;;;;;;;;5183922;27;14342;-78
2022/03/07 21:10:27;;;;;;;;;32.00;27.00;;;;;;;;5184534;27;10996;-78
2022/03/07 21:12:53;;;;;;;;;34.33;27.00;;;;;;;;5184560;27;10402;-81
2022/03/07 21:15:18;;;;;;;;;30.67;26.67;;;;;;;;5184364;27;8868;-80
2022/03/07 21:17:43;;;;;;;;;32.00;27.67;;;;;;;;5166189;27;12245;-80
2022/03/07 21:20:10;;;;;;;;;8.33;7.00;;;;;;;;5185047;27;10414;-77
2022/03/07 21:22:36;;;;;;;;;33.67;28.33;;;;;;;;5183650;27;22509;-76
2022/03/07 21:25:02;;;;;;;;;31.00;25.67;;;;;;;;5183651;27;22619;-75
2022/03/07 21:27:27;;;;;;;;;35.67;28.33;;;;;;;;5164663;27;13411;-76
2022/03/07 21:29:52;;;;;;;;;28.67;27.33;;;;;;;;5184330;27;11370;-76
2022/03/07 21:32:18;;;;;;;;;29.00;25.00;;;;;;;;5184529;27;10338;-77
2022/03/07 21:34:43;;;;;;;;;29.67;25.67;;;;;;;;5165217;27;13552;-76
2022/03/07 21:37:09;;;;;;;;;25.33;25.00;;;;;;;;5184348;27;8791;-76
2022/03/07 21:39:34;;;;;;;;;25.67;22.67;;;;;;;;5184262;27;11389;-75
2022/03/07 21:41:59;;;;;;;;;34.33;28.00;;;;;;;;5184446;27;10333;-77
2022/03/07 21:44:24;;;;;;;;;34.00;29.33;;;;;;;;5181425;27;14389;-76
2022/03/07 21:46:50;;;;;;;;;33.67;27.00;;;;;;;;5172708;27;10719;-76
2022/03/07 21:49:15;;;;;;;;;38.00;28.33;;;;;;;;5162731;27;11945;-75
2022/03/07 21:51:41;;;;;;;;;32.67;27.00;;;;;;;;5162256;27;13406;-77
2022/03/07 21:54:07;;;;;;;;;30.67;25.00;;;;;;;;5183180;27;11898;-76
2022/03/07 21:56:32;;;;;;;;;28.33;24.67;;;;;;;;5184609;27;8827;-76
2022/03/07 21:58:57;;;;;;;;;31.67;27.33;;;;;;;;5183295;27;13226;-77